Station: EBSP - 02/10/2022 18:21Z (il y a 0 minutes)
EBSP 021820Z AUTO 30004KT 260V330 1200 BR BKN001/// OVC002/// 10/10 Q1023
Vent du 300º - 4 kt (vent de direction variable de 260º à 330º)
Visibilité: 1200 m (brume)
Ciel 75% couvert à 100 pieds - Ciel couvert à 200 pieds
Température: +10ºC - Point de rosée: +10ºC - QNH: 1023 hPa